Terminal Aerodrome Forecast
Issued by NWS Twin Cities, MN

Home | Current Version | Previous Version | Graphics & Text | Print | Product List | Glossary On
Versions: 1 2 3 4 5 6 7 8 9 10 11 12 13 14 15 16 17 18
997
FTUS43 KMPX 230542
TAFSTC
TAF
KSTC 230542Z 2306/2406 36009KT P6SM SCT250
      TEMPO 2306/2307 SCT015 OVC040
     FM231800 02010KT P6SM OVC150
     FM240000 01014G24KT P6SM OVC050=

USA.gov is the U.S. government's official web portal to all federal, state and local government web resources and services.